63.4°F
Current conditions from King Hill
Updated every 5 minutes
 
  Tuesday September 30, 2014

Station Historical Data
Daily Summary for April 1, 2012 Units:  Both    English   Metric
« Previous Day
Next Day »
Daily Weekly Monthly Yearly Custom
  High: Low: Average:
Temperature: 43.8 °F /  6.6 °C 24.9 °F /  -3.9 °C 35.4 °F /  1.9 °C
Dew Point: 29.3 °F /  -1.5 °C 17.7 °F /  -7.9 °C 22.4 °F /  -5.3 °C
Humidity: 81% 36% 61%
Wind Speed: 4.0mph /  6.4km/h - 1.6mph /  2.6km/h
Wind Gust: 7.0mph /  11.3km/h - -
Wind- - SSW
Pressure: 29.86 in /  1011.1 hPa 29.64 in /  1003.6 hPa -
Precipitation: 0.00 in /  0 mm    
Historical Graphs
 
 
Tabular Data for April 1, 2012
Time Temperature Dew Point Pressure Wind Wind Speed Wind Gust Humidity Daily Rainfall
00:00 31.1 °F /  -0.5 °C 19.2 °F /  -7.1 °C 29.86in /  1011.1hPa Calm     61% 0.00in /  0mm
00:05 30.8 °F /  -0.7 °C 19.3 °F /  -7.1 °C 29.85in /  1010.7hPa Calm     62% 0.00in /  0mm
00:10 30.6 °F /  -0.8 °C 18.7 °F /  -7.4 °C 29.85in /  1010.7hPa Calm     61% 0.00in /  0mm
00:15 30.7 °F /  -0.7 °C 18.8 °F /  -7.3 °C 29.85in /  1010.7hPa Calm     61% 0.00in /  0mm
00:20 30.5 °F /  -0.8 °C 19.0 °F /  -7.2 °C 29.85in /  1010.7hPa Calm     62% 0.00in /  0mm
00:25 29.8 °F /  -1.2 °C 19.5 °F /  -6.9 °C 29.85in /  1010.7hPa Calm     65% 0.00in /  0mm
00:30 28.9 °F /  -1.7 °C 19.0 °F /  -7.2 °C 29.85in /  1010.7hPa Calm     66% 0.00in /  0mm
00:35 28.9 °F /  -1.7 °C 19.0 °F /  -7.2 °C 29.85in /  1010.7hPa Calm     66% 0.00in /  0mm
00:40 29.0 °F /  -1.7 °C 18.7 °F /  -7.4 °C 29.84in /  1010.4hPa Calm     65% 0.00in /  0mm
00:50 30.1 °F /  -1.1 °C 18.7 °F /  -7.4 °C 29.84in /  1010.4hPa Calm     62% 0.00in /  0mm
00:55 30.1 °F /  -1.1 °C 19.0 °F /  -7.2 °C 29.85in /  1010.7hPa Calm     63% 0.00in /  0mm
01:00 29.7 °F /  -1.3 °C 19.0 °F /  -7.2 °C 29.85in /  1010.7hPa Calm     64% 0.00in /  0mm
01:05 29.2 °F /  -1.6 °C 19.3 °F /  -7.1 °C 29.85in /  1010.7hPa Calm     66% 0.00in /  0mm
01:10 28.8 °F /  -1.8 °C 18.9 °F /  -7.3 °C 29.85in /  1010.7hPa Calm     66% 0.00in /  0mm
01:15 28.3 °F /  -2.1 °C 19.1 °F /  -7.2 °C 29.85in /  1010.7hPa Calm     68% 0.00in /  0mm
01:20 28.2 °F /  -2.1 °C 18.7 °F /  -7.4 °C 29.85in /  1010.7hPa Calm     67% 0.00in /  0mm
01:25 28.7 °F /  -1.8 °C 19.5 °F /  -6.9 °C 29.85in /  1010.7hPa Calm     68% 0.00in /  0mm
01:30 28.5 °F /  -1.9 °C 19.3 °F /  -7.1 °C 29.84in /  1010.4hPa Calm     68% 0.00in /  0mm
01:35 28.9 °F /  -1.7 °C 19.7 °F /  -6.8 °C 29.84in /  1010.4hPa Calm     68% 0.00in /  0mm
01:40 29.0 °F /  -1.7 °C 19.4 °F /  -7 °C 29.84in /  1010.4hPa Calm     67% 0.00in /  0mm
01:45 28.8 °F /  -1.8 °C 18.9 °F /  -7.3 °C 29.84in /  1010.4hPa Calm     66% 0.00in /  0mm
01:50 29.0 °F /  -1.7 °C 19.1 °F /  -7.2 °C 29.84in /  1010.4hPa Calm     66% 0.00in /  0mm
02:00 28.5 °F /  -1.9 °C 19.3 °F /  -7.1 °C 29.84in /  1010.4hPa Calm     68% 0.00in /  0mm
02:05 28.4 °F /  -2 °C 19.2 °F /  -7.1 °C 29.84in /  1010.4hPa Calm   1.0mph /  1.6km/h 68% 0.00in /  0mm
02:10 28.4 °F /  -2 °C 19.2 °F /  -7.1 °C 29.84in /  1010.4hPa SW 2.0mph /  3.2km/h 3.0mph /  4.8km/h 68% 0.00in /  0mm
02:15 28.0 °F /  -2.2 °C 19.1 °F /  -7.2 °C 29.84in /  1010.4hPa Calm   3.0mph /  4.8km/h 69% 0.00in /  0mm
02:20 27.4 °F /  -2.6 °C 18.9 °F /  -7.3 °C 29.84in /  1010.4hPa Calm   2.0mph /  3.2km/h 70% 0.00in /  0mm
02:25 27.1 °F /  -2.7 °C 18.9 °F /  -7.3 °C 29.84in /  1010.4hPa SSW 1.0mph /  1.6km/h 3.0mph /  4.8km/h 71% 0.00in /  0mm
02:30 26.8 °F /  -2.9 °C 19.0 °F /  -7.2 °C 29.84in /  1010.4hPa Calm   3.0mph /  4.8km/h 72% 0.00in /  0mm
02:40 26.8 °F /  -2.9 °C 19.0 °F /  -7.2 °C 29.84in /  1010.4hPa Calm   2.0mph /  3.2km/h 72% 0.00in /  0mm
02:45 27.1 °F /  -2.7 °C 18.9 °F /  -7.3 °C 29.84in /  1010.4hPa Calm     71% 0.00in /  0mm
02:50 26.9 °F /  -2.8 °C 18.8 °F /  -7.3 °C 29.84in /  1010.4hPa Calm     71% 0.00in /  0mm
02:55 26.7 °F /  -2.9 °C 18.9 °F /  -7.3 °C 29.84in /  1010.4hPa SSW 1.0mph /  1.6km/h 2.0mph /  3.2km/h 72% 0.00in /  0mm
03:00 27.3 °F /  -2.6 °C 19.5 °F /  -6.9 °C 29.84in /  1010.4hPa Calm   2.0mph /  3.2km/h 72% 0.00in /  0mm
03:05 28.2 °F /  -2.1 °C 20.3 °F /  -6.5 °C 29.83in /  1010hPa Calm   1.0mph /  1.6km/h 72% 0.00in /  0mm
03:10 28.7 °F /  -1.8 °C 20.2 °F /  -6.6 °C 29.83in /  1010hPa Calm     70% 0.00in /  0mm
03:15 27.8 °F /  -2.3 °C 19.3 °F /  -7.1 °C 29.83in /  1010hPa Calm     70% 0.00in /  0mm
03:20 27.5 °F /  -2.5 °C 19.3 °F /  -7.1 °C 29.83in /  1010hPa Calm     71% 0.00in /  0mm
03:25 27.5 °F /  -2.5 °C 19.0 °F /  -7.2 °C 29.83in /  1010hPa Calm     70% 0.00in /  0mm
03:30 27.8 °F /  -2.3 °C 19.0 °F /  -7.2 °C 29.83in /  1010hPa Calm     69% 0.00in /  0mm
03:35 27.9 °F /  -2.3 °C 19.1 °F /  -7.2 °C 29.82in /  1009.7hPa Calm     69% 0.00in /  0mm
03:40 28.0 °F /  -2.2 °C 19.1 °F /  -7.2 °C 29.82in /  1009.7hPa Calm     69% 0.00in /  0mm
03:50 28.6 °F /  -1.9 °C 19.0 °F /  -7.2 °C 29.82in /  1009.7hPa Calm     67% 0.00in /  0mm
03:55 28.3 °F /  -2.1 °C 19.1 °F /  -7.2 °C 29.82in /  1009.7hPa Calm     68% 0.00in /  0mm
04:00 27.9 °F /  -2.3 °C 18.7 °F /  -7.4 °C 29.82in /  1009.7hPa Calm     68% 0.00in /  0mm
04:05 27.4 °F /  -2.6 °C 18.9 °F /  -7.3 °C 29.82in /  1009.7hPa Calm     70% 0.00in /  0mm
04:10 26.9 °F /  -2.8 °C 18.4 °F /  -7.6 °C 29.82in /  1009.7hPa Calm     70% 0.00in /  0mm
04:15 26.5 °F /  -3.1 °C 18.4 °F /  -7.6 °C 29.82in /  1009.7hPa Calm     71% 0.00in /  0mm
04:20 26.6 °F /  -3 °C 18.5 °F /  -7.5 °C 29.82in /  1009.7hPa Calm     71% 0.00in /  0mm
04:25 26.5 °F /  -3.1 °C 19.0 °F /  -7.2 °C 29.82in /  1009.7hPa Calm     73% 0.00in /  0mm
04:30 26.2 °F /  -3.2 °C 19.0 °F /  -7.2 °C 29.82in /  1009.7hPa Calm     74% 0.00in /  0mm
04:35 26.0 °F /  -3.3 °C 18.9 °F /  -7.3 °C 29.82in /  1009.7hPa Calm     74% 0.00in /  0mm
04:40 25.8 °F /  -3.4 °C 19.0 °F /  -7.2 °C 29.82in /  1009.7hPa Calm     75% 0.00in /  0mm
04:45 25.7 °F /  -3.5 °C 18.9 °F /  -7.3 °C 29.82in /  1009.7hPa Calm     75% 0.00in /  0mm
04:55 25.6 °F /  -3.6 °C 18.5 °F /  -7.5 °C 29.83in /  1010hPa Calm     74% 0.00in /  0mm
04:59 25.5 °F /  -3.6 °C 18.4 °F /  -7.6 °C 29.83in /  1010hPa Calm     74% 0.00in /  0mm
05:05 25.6 °F /  -3.6 °C 18.5 °F /  -7.5 °C 29.83in /  1010hPa Calm     74% 0.00in /  0mm
05:10 25.4 °F /  -3.7 °C 18.3 °F /  -7.6 °C 29.83in /  1010hPa Calm     74% 0.00in /  0mm
05:14 25.1 °F /  -3.8 °C 18.0 °F /  -7.8 °C 29.83in /  1010hPa Calm     74% 0.00in /  0mm
05:20 24.9 °F /  -3.9 °C 17.8 °F /  -7.9 °C 29.83in /  1010hPa Calm     74% 0.00in /  0mm
05:25 25.1 °F /  -3.8 °C 18.3 °F /  -7.6 °C 29.83in /  1010hPa Calm     75% 0.00in /  0mm
05:30 25.4 °F /  -3.7 °C 18.9 °F /  -7.3 °C 29.83in /  1010hPa Calm     76% 0.00in /  0mm
05:35 25.4 °F /  -3.7 °C 18.6 °F /  -7.4 °C 29.83in /  1010hPa Calm     75% 0.00in /  0mm
05:40 25.3 °F /  -3.7 °C 18.5 °F /  -7.5 °C 29.83in /  1010hPa Calm     75% 0.00in /  0mm
05:45 25.2 °F /  -3.8 °C 18.4 °F /  -7.6 °C 29.83in /  1010hPa Calm     75% 0.00in /  0mm
05:50 25.4 °F /  -3.7 °C 18.6 °F /  -7.4 °C 29.82in /  1009.7hPa Calm     75% 0.00in /  0mm
06:00 25.7 °F /  -3.5 °C 18.2 °F /  -7.7 °C 29.82in /  1009.7hPa Calm     73% 0.00in /  0mm
06:04 25.7 °F /  -3.5 °C 18.6 °F /  -7.4 °C 29.83in /  1010hPa Calm     74% 0.00in /  0mm
06:10 25.5 °F /  -3.6 °C 18.1 °F /  -7.7 °C 29.83in /  1010hPa Calm     73% 0.00in /  0mm
06:15 25.8 °F /  -3.4 °C 18.3 °F /  -7.6 °C 29.83in /  1010hPa Calm     73% 0.00in /  0mm
06:20 26.2 °F /  -3.2 °C 18.4 °F /  -7.6 °C 29.83in /  1010hPa Calm     72% 0.00in /  0mm
06:25 26.3 °F /  -3.2 °C 18.5 °F /  -7.5 °C 29.83in /  1010hPa Calm     72% 0.00in /  0mm
06:30 26.2 °F /  -3.2 °C 18.7 °F /  -7.4 °C 29.82in /  1009.7hPa Calm     73% 0.00in /  0mm
06:35 26.2 °F /  -3.2 °C 19.4 °F /  -7 °C 29.82in /  1009.7hPa Calm     75% 0.00in /  0mm
06:40 26.3 °F /  -3.2 °C 19.5 °F /  -6.9 °C 29.82in /  1009.7hPa Calm     75% 0.00in /  0mm
06:45 26.3 °F /  -3.2 °C 19.5 °F /  -6.9 °C 29.82in /  1009.7hPa Calm     75% 0.00in /  0mm
06:55 26.3 °F /  -3.2 °C 19.8 °F /  -6.8 °C 29.82in /  1009.7hPa Calm     76% 0.00in /  0mm
06:59 26.5 °F /  -3.1 °C 20.3 °F /  -6.5 °C 29.82in /  1009.7hPa Calm     77% 0.00in /  0mm
07:05 26.6 °F /  -3 °C 20.4 °F /  -6.4 °C 29.82in /  1009.7hPa Calm     77% 0.00in /  0mm
07:10 26.9 °F /  -2.8 °C 20.7 °F /  -6.3 °C 29.82in /  1009.7hPa Calm     77% 0.00in /  0mm
07:15 27.4 °F /  -2.6 °C 20.8 °F /  -6.2 °C 29.81in /  1009.4hPa Calm     76% 0.00in /  0mm
07:20 27.8 °F /  -2.3 °C 21.5 °F /  -5.8 °C 29.82in /  1009.7hPa Calm     77% 0.00in /  0mm
07:25 28.1 °F /  -2.2 °C 21.8 °F /  -5.7 °C 29.82in /  1009.7hPa Calm     77% 0.00in /  0mm
07:35 28.8 °F /  -1.8 °C 23.1 °F /  -4.9 °C 29.82in /  1009.7hPa Calm     79% 0.00in /  0mm
07:39 29.0 °F /  -1.7 °C 23.0 °F /  -5 °C 29.82in /  1009.7hPa Calm     78% 0.00in /  0mm
07:45 29.2 °F /  -1.6 °C 23.2 °F /  -4.9 °C 29.82in /  1009.7hPa Calm     78% 0.00in /  0mm
07:50 29.5 °F /  -1.4 °C 23.8 °F /  -4.6 °C 29.82in /  1009.7hPa Calm     79% 0.00in /  0mm
08:00 30.5 °F /  -0.8 °C 25.1 °F /  -3.8 °C 29.81in /  1009.4hPa Calm   1.0mph /  1.6km/h 80% 0.00in /  0mm
08:05 31.1 °F /  -0.5 °C 25.4 °F /  -3.7 °C 29.81in /  1009.4hPa Calm   1.0mph /  1.6km/h 79% 0.00in /  0mm
08:09 32.1 °F /  0.1 °C 23.8 °F /  -4.6 °C 29.81in /  1009.4hPa SSW 1.0mph /  1.6km/h 3.0mph /  4.8km/h 71% 0.00in /  0mm
08:15 33.1 °F /  0.6 °C 23.0 °F /  -5 °C 29.81in /  1009.4hPa SSW 2.0mph /  3.2km/h 4.0mph /  6.4km/h 66% 0.00in /  0mm
08:20 33.7 °F /  0.9 °C 22.4 °F /  -5.3 °C 29.81in /  1009.4hPa SSW 3.0mph /  4.8km/h 5.0mph /  8km/h 63% 0.00in /  0mm
08:30 34.2 °F /  1.2 °C 22.5 °F /  -5.3 °C 29.81in /  1009.4hPa Calm   5.0mph /  8km/h 62% 0.00in /  0mm
08:35 34.4 °F /  1.3 °C 22.7 °F /  -5.2 °C 29.80in /  1009hPa Calm   4.0mph /  6.4km/h 62% 0.00in /  0mm
08:40 34.4 °F /  1.3 °C 22.0 °F /  -5.6 °C 29.80in /  1009hPa SSW 1.0mph /  1.6km/h 4.0mph /  6.4km/h 60% 0.00in /  0mm
08:45 34.5 °F /  1.4 °C 22.0 °F /  -5.6 °C 29.80in /  1009hPa Calm   4.0mph /  6.4km/h 60% 0.00in /  0mm
08:50 34.8 °F /  1.6 °C 22.3 °F /  -5.4 °C 29.80in /  1009hPa SSW 2.0mph /  3.2km/h 5.0mph /  8km/h 60% 0.00in /  0mm
08:55 35.1 °F /  1.7 °C 22.2 °F /  -5.4 °C 29.80in /  1009hPa SSW 2.0mph /  3.2km/h 5.0mph /  8km/h 59% 0.00in /  0mm
08:59 35.3 °F /  1.8 °C 22.8 °F /  -5.1 °C 29.80in /  1009hPa SSW 3.0mph /  4.8km/h 6.0mph /  9.7km/h 60% 0.00in /  0mm
09:05 35.4 °F /  1.9 °C 22.1 °F /  -5.5 °C 29.80in /  1009hPa SSW 2.0mph /  3.2km/h 6.0mph /  9.7km/h 58% 0.00in /  0mm
09:10 35.5 °F /  1.9 °C 22.6 °F /  -5.2 °C 29.79in /  1008.7hPa SSW 2.0mph /  3.2km/h 7.0mph /  11.3km/h 59% 0.00in /  0mm
09:14 35.7 °F /  2.1 °C 22.8 °F /  -5.1 °C 29.79in /  1008.7hPa SSW 1.0mph /  1.6km/h 7.0mph /  11.3km/h 59% 0.00in /  0mm
09:20 36.0 °F /  2.2 °C 23.5 °F /  -4.7 °C 29.79in /  1008.7hPa SSW 2.0mph /  3.2km/h 6.0mph /  9.7km/h 60% 0.00in /  0mm
09:25 36.4 °F /  2.4 °C 23.4 °F /  -4.8 °C 29.79in /  1008.7hPa SSW 1.0mph /  1.6km/h 5.0mph /  8km/h 59% 0.00in /  0mm
09:30 36.6 °F /  2.6 °C 23.2 °F /  -4.9 °C 29.79in /  1008.7hPa Calm   5.0mph /  8km/h 58% 0.00in /  0mm
09:35 37.0 °F /  2.8 °C 23.6 °F /  -4.7 °C 29.79in /  1008.7hPa Calm   5.0mph /  8km/h 58% 0.00in /  0mm
09:40 37.8 °F /  3.2 °C 23.9 °F /  -4.5 °C 29.79in /  1008.7hPa Calm   3.0mph /  4.8km/h 57% 0.00in /  0mm
09:50 39.4 °F /  4.1 °C 23.7 °F /  -4.6 °C 29.78in /  1008.4hPa Calm   3.0mph /  4.8km/h 53% 0.00in /  0mm
09:55 39.9 °F /  4.4 °C 22.8 °F /  -5.1 °C 29.78in /  1008.4hPa Calm   5.0mph /  8km/h 50% 0.00in /  0mm
10:00 40.3 °F /  4.6 °C 22.7 °F /  -5.2 °C 29.78in /  1008.4hPa SSW 2.0mph /  3.2km/h 5.0mph /  8km/h 49% 0.00in /  0mm
10:04 41.1 °F /  5.1 °C 23.4 °F /  -4.8 °C 29.78in /  1008.4hPa SSW 1.0mph /  1.6km/h 5.0mph /  8km/h 49% 0.00in /  0mm
10:10 41.4 °F /  5.2 °C 23.7 °F /  -4.6 °C 29.78in /  1008.4hPa Calm   5.0mph /  8km/h 49% 0.00in /  0mm
10:15 41.3 °F /  5.2 °C 23.1 °F /  -4.9 °C 29.78in /  1008.4hPa SSW 1.0mph /  1.6km/h 5.0mph /  8km/h 48% 0.00in /  0mm
10:19 41.3 °F /  5.2 °C 23.6 °F /  -4.7 °C 29.77in /  1008hPa SSW 3.0mph /  4.8km/h 7.0mph /  11.3km/h 49% 0.00in /  0mm
10:25 40.8 °F /  4.9 °C 23.6 °F /  -4.7 °C 29.77in /  1008hPa SSW 1.0mph /  1.6km/h 7.0mph /  11.3km/h 50% 0.00in /  0mm
10:30 41.0 °F /  5 °C 24.7 °F /  -4.1 °C 29.77in /  1008hPa SSW 3.0mph /  4.8km/h 6.0mph /  9.7km/h 52% 0.00in /  0mm
10:35 40.9 °F /  4.9 °C 23.2 °F /  -4.9 °C 29.77in /  1008hPa Calm   6.0mph /  9.7km/h 49% 0.00in /  0mm
10:40 41.0 °F /  5 °C 22.8 °F /  -5.1 °C 29.77in /  1008hPa SSW 1.0mph /  1.6km/h 6.0mph /  9.7km/h 48% 0.00in /  0mm
10:44 41.2 °F /  5.1 °C 23.0 °F /  -5 °C 29.77in /  1008hPa Calm   5.0mph /  8km/h 48% 0.00in /  0mm
10:50 41.5 °F /  5.3 °C 22.8 °F /  -5.1 °C 29.76in /  1007.7hPa Calm   3.0mph /  4.8km/h 47% 0.00in /  0mm
11:00 41.9 °F /  5.5 °C 23.6 °F /  -4.7 °C 29.76in /  1007.7hPa South 1.0mph /  1.6km/h 6.0mph /  9.7km/h 48% 0.00in /  0mm
11:05 42.2 °F /  5.7 °C 23.9 °F /  -4.5 °C 29.76in /  1007.7hPa South 1.0mph /  1.6km/h 6.0mph /  9.7km/h 48% 0.00in /  0mm
11:14 42.0 °F /  5.6 °C 22.2 °F /  -5.4 °C 29.76in /  1007.7hPa South 1.0mph /  1.6km/h 6.0mph /  9.7km/h 45% 0.00in /  0mm
11:20 41.9 °F /  5.5 °C 23.1 °F /  -4.9 °C 29.75in /  1007.3hPa Calm   5.0mph /  8km/h 47% 0.00in /  0mm
11:25 41.8 °F /  5.4 °C 23.5 °F /  -4.7 °C 29.75in /  1007.3hPa South 2.0mph /  3.2km/h 6.0mph /  9.7km/h 48% 0.00in /  0mm
11:30 42.0 °F /  5.6 °C 24.2 °F /  -4.3 °C 29.75in /  1007.3hPa Calm   6.0mph /  9.7km/h 49% 0.00in /  0mm
11:35 42.5 °F /  5.8 °C 24.7 °F /  -4.1 °C 29.75in /  1007.3hPa South 2.0mph /  3.2km/h 5.0mph /  8km/h 49% 0.00in /  0mm
11:45 42.9 °F /  6.1 °C 24.1 °F /  -4.4 °C 29.75in /  1007.3hPa South 4.0mph /  6.4km/h 6.0mph /  9.7km/h 47% 0.00in /  0mm
11:55 42.9 °F /  6.1 °C 21.9 °F /  -5.6 °C 29.74in /  1007hPa Calm   6.0mph /  9.7km/h 43% 0.00in /  0mm
12:05 42.8 °F /  6 °C 19.5 °F /  -6.9 °C 29.74in /  1007hPa Calm   2.0mph /  3.2km/h 39% 0.00in /  0mm
12:10 42.8 °F /  6 °C 17.7 °F /  -7.9 °C 29.74in /  1007hPa Calm     36% 0.00in /  0mm
12:15 42.8 °F /  6 °C 19.5 °F /  -6.9 °C 29.74in /  1007hPa Calm   1.0mph /  1.6km/h 39% 0.00in /  0mm
12:20 42.7 °F /  5.9 °C 20.6 °F /  -6.3 °C 29.74in /  1007hPa Calm   1.0mph /  1.6km/h 41% 0.00in /  0mm
12:25 42.7 °F /  5.9 °C 21.2 °F /  -6 °C 29.74in /  1007hPa Calm   1.0mph /  1.6km/h 42% 0.00in /  0mm
12:30 42.9 °F /  6.1 °C 20.8 °F /  -6.2 °C 29.74in /  1007hPa Calm   1.0mph /  1.6km/h 41% 0.00in /  0mm
12:34 43.1 °F /  6.2 °C 22.1 °F /  -5.5 °C 29.74in /  1007hPa Calm   4.0mph /  6.4km/h 43% 0.00in /  0mm
12:40 43.6 °F /  6.4 °C 22.0 °F /  -5.6 °C 29.74in /  1007hPa Calm   4.0mph /  6.4km/h 42% 0.00in /  0mm
12:45 43.8 °F /  6.6 °C 22.2 °F /  -5.4 °C 29.73in /  1006.7hPa Calm   5.0mph /  8km/h 42% 0.00in /  0mm
12:50 43.8 °F /  6.6 °C 21.0 °F /  -6.1 °C 29.73in /  1006.7hPa Calm   5.0mph /  8km/h 40% 0.00in /  0mm
12:55 43.7 °F /  6.5 °C 21.5 °F /  -5.8 °C 29.73in /  1006.7hPa Calm   5.0mph /  8km/h 41% 0.00in /  0mm
12:59 43.6 °F /  6.4 °C 20.9 °F /  -6.2 °C 29.72in /  1006.3hPa Calm   1.0mph /  1.6km/h 40% 0.00in /  0mm
13:05 43.3 °F /  6.3 °C 21.2 °F /  -6 °C 29.72in /  1006.3hPa Calm   1.0mph /  1.6km/h 41% 0.00in /  0mm
13:10 43.4 °F /  6.3 °C 18.9 °F /  -7.3 °C 29.72in /  1006.3hPa Calm   1.0mph /  1.6km/h 37% 0.00in /  0mm
13:14 43.7 °F /  6.5 °C 19.7 °F /  -6.8 °C 29.71in /  1006hPa Calm   5.0mph /  8km/h 38% 0.00in /  0mm
13:20 43.5 °F /  6.4 °C 20.2 °F /  -6.6 °C 29.71in /  1006hPa Calm   6.0mph /  9.7km/h 39% 0.00in /  0mm
13:25 43.3 °F /  6.3 °C 20.6 °F /  -6.3 °C 29.71in /  1006hPa NNE 1.0mph /  1.6km/h 6.0mph /  9.7km/h 40% 0.00in /  0mm
13:30 43.2 °F /  6.2 °C 21.1 °F /  -6.1 °C 29.71in /  1006hPa Calm   7.0mph /  11.3km/h 41% 0.00in /  0mm
13:40 43.8 °F /  6.6 °C 21.6 °F /  -5.8 °C 29.70in /  1005.6hPa NNE 1.0mph /  1.6km/h 6.0mph /  9.7km/h 41% 0.00in /  0mm
13:45 43.8 °F /  6.6 °C 21.0 °F /  -6.1 °C 29.70in /  1005.6hPa Calm   6.0mph /  9.7km/h 40% 0.00in /  0mm
13:50 43.5 °F /  6.4 °C 19.6 °F /  -6.9 °C 29.69in /  1005.3hPa Calm   4.0mph /  6.4km/h 38% 0.00in /  0mm
13:55 43.5 °F /  6.4 °C 19.6 °F /  -6.9 °C 29.69in /  1005.3hPa NE 1.0mph /  1.6km/h 6.0mph /  9.7km/h 38% 0.00in /  0mm
14:05 43.2 °F /  6.2 °C 19.9 °F /  -6.7 °C 29.69in /  1005.3hPa NE 1.0mph /  1.6km/h 4.0mph /  6.4km/h 39% 0.00in /  0mm
14:14 43.3 °F /  6.3 °C 19.4 °F /  -7 °C 29.69in /  1005.3hPa Calm   2.0mph /  3.2km/h 38% 0.00in /  0mm
14:20 43.3 °F /  6.3 °C 20.0 °F /  -6.7 °C 29.68in /  1005hPa Calm   2.0mph /  3.2km/h 39% 0.00in /  0mm
14:30 43.4 °F /  6.3 °C 19.5 °F /  -6.9 °C 29.68in /  1005hPa Calm   1.0mph /  1.6km/h 38% 0.00in /  0mm
14:34 43.4 °F /  6.3 °C 19.5 °F /  -6.9 °C 29.68in /  1005hPa Calm     38% 0.00in /  0mm
14:40 43.1 °F /  6.2 °C 19.2 °F /  -7.1 °C 29.68in /  1005hPa Calm     38% 0.00in /  0mm
14:45 42.9 °F /  6.1 °C 19.0 °F /  -7.2 °C 29.68in /  1005hPa Calm   1.0mph /  1.6km/h 38% 0.00in /  0mm
14:50 42.9 °F /  6.1 °C 20.2 °F /  -6.6 °C 29.68in /  1005hPa Calm   1.0mph /  1.6km/h 40% 0.00in /  0mm
14:55 42.9 °F /  6.1 °C 20.8 °F /  -6.2 °C 29.68in /  1005hPa WSW 3.0mph /  4.8km/h 6.0mph /  9.7km/h 41% 0.00in /  0mm
15:04 42.5 °F /  5.8 °C 21.6 °F /  -5.8 °C 29.67in /  1004.6hPa WSW 4.0mph /  6.4km/h 7.0mph /  11.3km/h 43% 0.00in /  0mm
15:10 42.3 °F /  5.7 °C 21.4 °F /  -5.9 °C 29.67in /  1004.6hPa West 3.0mph /  4.8km/h 7.0mph /  11.3km/h 43% 0.00in /  0mm
15:15 42.3 °F /  5.7 °C 21.9 °F /  -5.6 °C 29.67in /  1004.6hPa West 2.0mph /  3.2km/h 7.0mph /  11.3km/h 44% 0.00in /  0mm
15:19 42.3 °F /  5.7 °C 21.4 °F /  -5.9 °C 29.67in /  1004.6hPa Calm   4.0mph /  6.4km/h 43% 0.00in /  0mm
15:25 42.3 °F /  5.7 °C 21.9 °F /  -5.6 °C 29.67in /  1004.6hPa Calm   4.0mph /  6.4km/h 44% 0.00in /  0mm
15:29 42.3 °F /  5.7 °C 21.9 °F /  -5.6 °C 29.67in /  1004.6hPa West 3.0mph /  4.8km/h 5.0mph /  8km/h 44% 0.00in /  0mm
15:35 42.3 °F /  5.7 °C 21.9 °F /  -5.6 °C 29.67in /  1004.6hPa Calm   5.0mph /  8km/h 44% 0.00in /  0mm
15:40 42.4 °F /  5.8 °C 22.0 °F /  -5.6 °C 29.66in /  1004.3hPa Calm   4.0mph /  6.4km/h 44% 0.00in /  0mm
15:50 42.5 °F /  5.8 °C 22.1 °F /  -5.5 °C 29.66in /  1004.3hPa Calm   4.0mph /  6.4km/h 44% 0.00in /  0mm
15:55 42.5 °F /  5.8 °C 22.1 °F /  -5.5 °C 29.66in /  1004.3hPa Calm   4.0mph /  6.4km/h 44% 0.00in /  0mm
15:59 42.5 °F /  5.8 °C 21.6 °F /  -5.8 °C 29.66in /  1004.3hPa West 1.0mph /  1.6km/h 4.0mph /  6.4km/h 43% 0.00in /  0mm
16:05 42.4 °F /  5.8 °C 21.5 °F /  -5.8 °C 29.65in /  1003.9hPa Calm   4.0mph /  6.4km/h 43% 0.00in /  0mm
16:10 42.4 °F /  5.8 °C 22.0 °F /  -5.6 °C 29.65in /  1003.9hPa West 1.0mph /  1.6km/h 4.0mph /  6.4km/h 44% 0.00in /  0mm
16:14 42.6 °F /  5.9 °C 22.2 °F /  -5.4 °C 29.65in /  1003.9hPa Calm   4.0mph /  6.4km/h 44% 0.00in /  0mm
16:20 42.7 °F /  5.9 °C 21.8 °F /  -5.7 °C 29.65in /  1003.9hPa Calm   4.0mph /  6.4km/h 43% 0.00in /  0mm
16:24 42.7 °F /  5.9 °C 21.8 °F /  -5.7 °C 29.65in /  1003.9hPa West 1.0mph /  1.6km/h 3.0mph /  4.8km/h 43% 0.00in /  0mm
16:30 42.6 °F /  5.9 °C 21.7 °F /  -5.7 °C 29.65in /  1003.9hPa Calm   4.0mph /  6.4km/h 43% 0.00in /  0mm
16:35 42.5 °F /  5.8 °C 21.6 °F /  -5.8 °C 29.65in /  1003.9hPa Calm   4.0mph /  6.4km/h 43% 0.00in /  0mm
16:45 42.6 °F /  5.9 °C 21.7 °F /  -5.7 °C 29.65in /  1003.9hPa Calm   3.0mph /  4.8km/h 43% 0.00in /  0mm
16:50 42.7 °F /  5.9 °C 22.3 °F /  -5.4 °C 29.64in /  1003.6hPa Calm     44% 0.00in /  0mm
16:55 42.8 °F /  6 °C 21.8 °F /  -5.7 °C 29.64in /  1003.6hPa Calm     43% 0.00in /  0mm
17:04 42.4 °F /  5.8 °C 22.0 °F /  -5.6 °C 29.64in /  1003.6hPa Calm   4.0mph /  6.4km/h 44% 0.00in /  0mm
17:10 42.2 °F /  5.7 °C 22.4 °F /  -5.3 °C 29.64in /  1003.6hPa West 1.0mph /  1.6km/h 4.0mph /  6.4km/h 45% 0.00in /  0mm
17:15 42.3 °F /  5.7 °C 22.5 °F /  -5.3 °C 29.64in /  1003.6hPa Calm   4.0mph /  6.4km/h 45% 0.00in /  0mm
17:20 42.6 °F /  5.9 °C 22.2 °F /  -5.4 °C 29.64in /  1003.6hPa West 1.0mph /  1.6km/h 6.0mph /  9.7km/h 44% 0.00in /  0mm
17:25 42.7 °F /  5.9 °C 22.3 °F /  -5.4 °C 29.64in /  1003.6hPa West 2.0mph /  3.2km/h 6.0mph /  9.7km/h 44% 0.00in /  0mm
17:30 42.7 °F /  5.9 °C 23.4 °F /  -4.8 °C 29.64in /  1003.6hPa SE 2.0mph /  3.2km/h 6.0mph /  9.7km/h 46% 0.00in /  0mm
17:34 42.5 °F /  5.8 °C 23.2 °F /  -4.9 °C 29.64in /  1003.6hPa Calm   6.0mph /  9.7km/h 46% 0.00in /  0mm
17:40 42.4 °F /  5.8 °C 24.1 °F /  -4.4 °C 29.64in /  1003.6hPa SSE 2.0mph /  3.2km/h 6.0mph /  9.7km/h 48% 0.00in /  0mm
17:49 42.1 °F /  5.6 °C 23.3 °F /  -4.8 °C 29.64in /  1003.6hPa Calm   4.0mph /  6.4km/h 47% 0.00in /  0mm
17:55 42.0 °F /  5.6 °C 23.2 °F /  -4.9 °C 29.64in /  1003.6hPa Calm   3.0mph /  4.8km/h 47% 0.00in /  0mm
18:05 41.6 °F /  5.3 °C 23.9 °F /  -4.5 °C 29.64in /  1003.6hPa Calm   4.0mph /  6.4km/h 49% 0.00in /  0mm
18:10 41.4 °F /  5.2 °C 23.7 °F /  -4.6 °C 29.64in /  1003.6hPa Calm     49% 0.00in /  0mm
18:15 41.4 °F /  5.2 °C 24.2 °F /  -4.3 °C 29.64in /  1003.6hPa Calm     50% 0.00in /  0mm
18:20 41.4 °F /  5.2 °C 24.2 °F /  -4.3 °C 29.64in /  1003.6hPa Calm     50% 0.00in /  0mm
18:24 41.4 °F /  5.2 °C 24.2 °F /  -4.3 °C 29.64in /  1003.6hPa Calm     50% 0.00in /  0mm
18:30 41.4 °F /  5.2 °C 24.6 °F /  -4.1 °C 29.64in /  1003.6hPa Calm   1.0mph /  1.6km/h 51% 0.00in /  0mm
18:35 41.3 °F /  5.2 °C 25.0 °F /  -3.9 °C 29.64in /  1003.6hPa SSE 1.0mph /  1.6km/h 4.0mph /  6.4km/h 52% 0.00in /  0mm
18:40 41.2 °F /  5.1 °C 24.9 °F /  -3.9 °C 29.64in /  1003.6hPa SSW 2.0mph /  3.2km/h 6.0mph /  9.7km/h 52% 0.00in /  0mm
18:45 40.9 °F /  4.9 °C 25.1 °F /  -3.8 °C 29.64in /  1003.6hPa West 1.0mph /  1.6km/h 6.0mph /  9.7km/h 53% 0.00in /  0mm
18:50 40.7 °F /  4.8 °C 24.9 °F /  -3.9 °C 29.64in /  1003.6hPa West 1.0mph /  1.6km/h 6.0mph /  9.7km/h 53% 0.00in /  0mm
18:59 40.3 °F /  4.6 °C 25.0 °F /  -3.9 °C 29.64in /  1003.6hPa West 1.0mph /  1.6km/h 3.0mph /  4.8km/h 54% 0.00in /  0mm
19:05 40.1 °F /  4.5 °C 25.2 °F /  -3.8 °C 29.64in /  1003.6hPa West 1.0mph /  1.6km/h 3.0mph /  4.8km/h 55% 0.00in /  0mm
19:10 39.8 °F /  4.3 °C 25.4 °F /  -3.7 °C 29.64in /  1003.6hPa West 2.0mph /  3.2km/h 4.0mph /  6.4km/h 56% 0.00in /  0mm
19:20 39.3 °F /  4.1 °C 25.3 °F /  -3.7 °C 29.64in /  1003.6hPa Calm   5.0mph /  8km/h 57% 0.00in /  0mm
19:25 39.1 °F /  3.9 °C 25.6 °F /  -3.6 °C 29.64in /  1003.6hPa West 1.0mph /  1.6km/h 4.0mph /  6.4km/h 58% 0.00in /  0mm
19:30 38.9 °F /  3.8 °C 25.8 °F /  -3.4 °C 29.64in /  1003.6hPa West 2.0mph /  3.2km/h 4.0mph /  6.4km/h 59% 0.00in /  0mm
19:40 38.6 °F /  3.7 °C 25.9 °F /  -3.4 °C 29.64in /  1003.6hPa Calm   4.0mph /  6.4km/h 60% 0.00in /  0mm
19:45 38.5 °F /  3.6 °C 26.2 °F /  -3.2 °C 29.64in /  1003.6hPa West 1.0mph /  1.6km/h 4.0mph /  6.4km/h 61% 0.00in /  0mm
19:50 38.4 °F /  3.6 °C 26.1 °F /  -3.3 °C 29.64in /  1003.6hPa Calm   4.0mph /  6.4km/h 61% 0.00in /  0mm
20:00 38.0 °F /  3.3 °C 26.9 °F /  -2.8 °C 29.64in /  1003.6hPa Calm   5.0mph /  8km/h 64% 0.00in /  0mm
20:05 37.8 °F /  3.2 °C 26.7 °F /  -2.9 °C 29.65in /  1003.9hPa Calm   5.0mph /  8km/h 64% 0.00in /  0mm
20:15 37.4 °F /  3 °C 27.1 °F /  -2.7 °C 29.65in /  1003.9hPa Calm   2.0mph /  3.2km/h 66% 0.00in /  0mm
20:25 37.0 °F /  2.8 °C 27.4 °F /  -2.6 °C 29.65in /  1003.9hPa Calm   1.0mph /  1.6km/h 68% 0.00in /  0mm
20:30 36.9 °F /  2.7 °C 27.3 °F /  -2.6 °C 29.65in /  1003.9hPa Calm     68% 0.00in /  0mm
20:34 36.8 °F /  2.7 °C 27.6 °F /  -2.4 °C 29.65in /  1003.9hPa Calm     69% 0.00in /  0mm
20:40 36.7 °F /  2.6 °C 27.5 °F /  -2.5 °C 29.65in /  1003.9hPa Calm     69% 0.00in /  0mm
20:45 36.5 °F /  2.5 °C 27.7 °F /  -2.4 °C 29.65in /  1003.9hPa Calm     70% 0.00in /  0mm
20:49 36.4 °F /  2.4 °C 27.9 °F /  -2.3 °C 29.65in /  1003.9hPa Calm   1.0mph /  1.6km/h 71% 0.00in /  0mm
20:55 36.2 °F /  2.3 °C 28.0 °F /  -2.2 °C 29.65in /  1003.9hPa Calm   1.0mph /  1.6km/h 72% 0.00in /  0mm
21:00 36.0 °F /  2.2 °C 28.2 °F /  -2.1 °C 29.66in /  1004.3hPa Calm     73% 0.00in /  0mm
21:05 35.9 °F /  2.2 °C 28.1 °F /  -2.2 °C 29.65in /  1003.9hPa Calm     73% 0.00in /  0mm
21:09 35.7 °F /  2.1 °C 28.2 °F /  -2.1 °C 29.65in /  1003.9hPa Calm     74% 0.00in /  0mm
21:15 35.6 °F /  2 °C 28.1 °F /  -2.2 °C 29.65in /  1003.9hPa Calm     74% 0.00in /  0mm
21:20 35.5 °F /  1.9 °C 28.4 °F /  -2 °C 29.65in /  1003.9hPa Calm     75% 0.00in /  0mm
21:24 35.4 °F /  1.9 °C 28.3 °F /  -2.1 °C 29.65in /  1003.9hPa Calm     75% 0.00in /  0mm
21:34 35.3 °F /  1.8 °C 28.5 °F /  -1.9 °C 29.65in /  1003.9hPa Calm     76% 0.00in /  0mm
21:40 35.2 °F /  1.8 °C 28.4 °F /  -2 °C 29.65in /  1003.9hPa Calm     76% 0.00in /  0mm
21:45 35.1 °F /  1.7 °C 28.3 °F /  -2.1 °C 29.65in /  1003.9hPa Calm     76% 0.00in /  0mm
21:50 35.1 °F /  1.7 °C 28.3 °F /  -2.1 °C 29.65in /  1003.9hPa Calm     76% 0.00in /  0mm
21:55 35.1 °F /  1.7 °C 28.6 °F /  -1.9 °C 29.65in /  1003.9hPa Calm     77% 0.00in /  0mm
22:04 35.1 °F /  1.7 °C 28.6 °F /  -1.9 °C 29.65in /  1003.9hPa Calm   1.0mph /  1.6km/h 77% 0.00in /  0mm
22:10 35.1 °F /  1.7 °C 28.6 °F /  -1.9 °C 29.65in /  1003.9hPa Calm   1.0mph /  1.6km/h 77% 0.00in /  0mm
22:14 35.0 °F /  1.7 °C 28.5 °F /  -1.9 °C 29.65in /  1003.9hPa Calm     77% 0.00in /  0mm
22:20 35.0 °F /  1.7 °C 28.5 °F /  -1.9 °C 29.65in /  1003.9hPa Calm     77% 0.00in /  0mm
22:24 35.0 °F /  1.7 °C 28.5 °F /  -1.9 °C 29.65in /  1003.9hPa Calm     77% 0.00in /  0mm
22:30 35.0 °F /  1.7 °C 28.5 °F /  -1.9 °C 29.65in /  1003.9hPa Calm     77% 0.00in /  0mm
22:35 34.9 °F /  1.6 °C 28.7 °F /  -1.8 °C 29.65in /  1003.9hPa Calm     78% 0.00in /  0mm
22:40 34.9 °F /  1.6 °C 28.7 °F /  -1.8 °C 29.65in /  1003.9hPa Calm   1.0mph /  1.6km/h 78% 0.00in /  0mm
22:44 34.9 °F /  1.6 °C 28.7 °F /  -1.8 °C 29.65in /  1003.9hPa Calm   1.0mph /  1.6km/h 78% 0.00in /  0mm
22:49 34.8 °F /  1.6 °C 28.6 °F /  -1.9 °C 29.65in /  1003.9hPa Calm     78% 0.00in /  0mm
22:55 34.8 °F /  1.6 °C 28.6 °F /  -1.9 °C 29.65in /  1003.9hPa Calm     78% 0.00in /  0mm
23:00 34.8 °F /  1.6 °C 28.6 °F /  -1.9 °C 29.65in /  1003.9hPa Calm     78% 0.00in /  0mm
23:05 34.8 °F /  1.6 °C 28.6 °F /  -1.9 °C 29.65in /  1003.9hPa Calm     78% 0.00in /  0mm
23:09 34.8 °F /  1.6 °C 29.0 °F /  -1.7 °C 29.65in /  1003.9hPa Calm     79% 0.00in /  0mm
23:14 34.8 °F /  1.6 °C 29.0 °F /  -1.7 °C 29.65in /  1003.9hPa Calm     79% 0.00in /  0mm
23:20 34.8 °F /  1.6 °C 29.0 °F /  -1.7 °C 29.65in /  1003.9hPa Calm     79% 0.00in /  0mm
23:25 34.7 °F /  1.5 °C 28.9 °F /  -1.7 °C 29.66in /  1004.3hPa Calm     79% 0.00in /  0mm
23:30 34.6 °F /  1.4 °C 28.8 °F /  -1.8 °C 29.65in /  1003.9hPa Calm     79% 0.00in /  0mm
23:34 34.5 °F /  1.4 °C 29.0 °F /  -1.7 °C 29.66in /  1004.3hPa West 1.0mph /  1.6km/h 4.0mph /  6.4km/h 80% 0.00in /  0mm
23:40 34.5 °F /  1.4 °C 29.0 °F /  -1.7 °C 29.66in /  1004.3hPa Calm   4.0mph /  6.4km/h 80% 0.00in /  0mm
23:45 34.5 °F /  1.4 °C 29.0 °F /  -1.7 °C 29.65in /  1003.9hPa Calm   1.0mph /  1.6km/h 80% 0.00in /  0mm
23:50 34.5 °F /  1.4 °C 29.3 °F /  -1.5 °C 29.65in /  1003.9hPa NNE 1.0mph /  1.6km/h 6.0mph /  9.7km/h 81% 0.00in /  0mm
23:55 34.4 °F /  1.3 °C 29.2 °F /  -1.6 °C 29.65in /  1003.9hPa Calm   6.0mph /  9.7km/h 81% 0.00in /  0mm
Westford Weather
Compliments of Weather Underground

 
 
Current Radar Loop:

Copyright © WestfordWeather.net 2007-2014. All rights reserved.